Gabo Island, Victoria

7:15 PM AEDT on October 20, 2014 (GMT +1100)
Main Wharf, Mallacoota, Vic, Australia | Change Station
CLOSE
Current Station
Personal Weather Station
Location: Mallacoota, VICTORIA
Elevation: 29 ft
Nearby Weather Stations

Elev 29 ft 37.55 °S, 149.76 °E | Updated 4 seconds ago

Overcast
Overcast
57.3 °F
Feels Like 57.3 °F
N
0.0
Wind Variable Wind from South
Gusts 4.0 mph

Today
High -- | Low -- °F
--% Chance of Precip.
Yesterday
High -- | Low -- °F
Precip. -- in
6:09 AM 7:21 PM
Waning Crescent, 12% visible
Pressure 30.48 in
Visibility 6.2 miles
Clouds Overcast 4000 ft
Dew Point 45 °F
Humidity 63%
Rainfall 0.05 in
Snow Depth Not available.
UV 0 out of 12
Pollen Not available.
Air Quality Not available.
Flu Activity Not available.
METAR YMER 200800Z AUTO 13005KT 9999 // OVC040 14/07 Q1032

More Conditions Fewer Conditions

Pressure 30.48 in
Visibility 6.2 miles
Clouds Overcast 4000 ft
Dew Point 45 °F
Humidity 63%
Rainfall 0.05 in
Snow Depth Not available.
UV 0 out of 12
Pollen Not available.
Air Quality Not available.
Flu Activity Not available.
METAR YMER 200800Z AUTO 13005KT 9999 // OVC040 14/07 Q1032

More Conditions Fewer Conditions

10-Day Weather Forecast

Almanac

Astronomy

Oct. 20, 2014 Rise Set
Actual Time 6:09 AM AEDT 7:21 PM AEDT
Civil Twilight 5:42 AM AEDT 7:48 PM AEDT
Nautical Twilight 5:09 AM AEDT 8:21 PM AEDT
Astronomical Twilight 4:36 AM AEDT 8:55 PM AEDT
Moon 4:01 AM AEDT 3:55 PM AEDT
Length of Visible Light 14h 06m
Length of Day
13h 12m
Tomorrow will be 2m 19s longer.
Waning Crescent, 12% of the Moon is Illuminated
Today
Waning Crescent
Oct 23
New
Oct 30
First Quarter
Nov 6
Full
Nov 14
Last Quarter

Yesterday's Extremes

Country Highs Country Lows

Community

WunderPhotos

Upload Photos

1,763,316 photos uploaded!

Nearby

Snow Depth

Not available.

Earthquake Activity

City Distance Mag. Time & Date
No recent earthquake activity has been reported nearby.
Minimum magnitude displayed is 2.5.

Coastal Water Temperatures

Place Temperature
No Stations Reporting

Nearby Weather Stations